sensor_id;sensor_type;location;lat;lon;timestamp;temperature;humidity
49222;DHT22;35047;37.588;-122.048;2023-02-18T00:00:30;23.20;32.90
49222;DHT22;35047;37.588;-122.048;2023-02-18T00:02:56;23.20;31.80
49222;DHT22;35047;37.588;-122.048;2023-02-18T00:05:23;23.00;33.30
49222;DHT22;35047;37.588;-122.048;2023-02-18T00:07:49;23.00;32.00
49222;DHT22;35047;37.588;-122.048;2023-02-18T00:10:17;22.90;32.90
49222;DHT22;35047;37.588;-122.048;2023-02-18T00:12:44;22.90;33.00
49222;DHT22;35047;37.588;-122.048;2023-02-18T00:15:11;23.00;33.60
49222;DHT22;35047;37.588;-122.048;2023-02-18T00:17:37;22.80;33.40
49222;DHT22;35047;37.588;-122.048;2023-02-18T00:20:04;22.90;33.40
49222;DHT22;35047;37.588;-122.048;2023-02-18T00:22:32;22.70;31.10
49222;DHT22;35047;37.588;-122.048;2023-02-18T00:24:58;22.90;33.80
49222;DHT22;35047;37.588;-122.048;2023-02-18T00:27:25;22.80;32.20
49222;DHT22;35047;37.588;-122.048;2023-02-18T00:29:52;22.70;31.30
49222;DHT22;35047;37.588;-122.048;2023-02-18T00:32:19;22.90;33.30
49222;DHT22;35047;37.588;-122.048;2023-02-18T00:34:46;22.80;32.50
49222;DHT22;35047;37.588;-122.048;2023-02-18T00:37:14;22.70;32.50
49222;DHT22;35047;37.588;-122.048;2023-02-18T00:39:40;22.60;31.80
49222;DHT22;35047;37.588;-122.048;2023-02-18T00:42:07;22.70;33.70
49222;DHT22;35047;37.588;-122.048;2023-02-18T00:44:35;22.90;33.80
49222;DHT22;35047;37.588;-122.048;2023-02-18T00:47:03;23.00;34.30
49222;DHT22;35047;37.588;-122.048;2023-02-18T00:49:30;22.80;32.80
49222;DHT22;35047;37.588;-122.048;2023-02-18T00:51:57;22.80;33.70
49222;DHT22;35047;37.588;-122.048;2023-02-18T00:54:24;22.80;33.90
49222;DHT22;35047;37.588;-122.048;2023-02-18T00:56:52;22.80;33.40
49222;DHT22;35047;37.588;-122.048;2023-02-18T00:59:18;22.80;34.00
49222;DHT22;35047;37.588;-122.048;2023-02-18T01:01:45;22.80;34.40
49222;DHT22;35047;37.588;-122.048;2023-02-18T01:04:12;22.90;34.30
49222;DHT22;35047;37.588;-122.048;2023-02-18T01:06:39;22.90;34.30
49222;DHT22;35047;37.588;-122.048;2023-02-18T01:09:06;22.70;33.90
49222;DHT22;35047;37.588;-122.048;2023-02-18T01:11:33;22.60;34.30
49222;DHT22;35047;37.588;-122.048;2023-02-18T01:13:59;22.40;34.10
49222;DHT22;35047;37.588;-122.048;2023-02-18T01:16:26;22.50;34.40
49222;DHT22;35047;37.588;-122.048;2023-02-18T01:18:53;22.60;34.50
49222;DHT22;35047;37.588;-122.048;2023-02-18T01:21:20;22.60;34.00
49222;DHT22;35047;37.588;-122.048;2023-02-18T01:23:46;22.50;34.30
49222;DHT22;35047;37.588;-122.048;2023-02-18T01:26:13;22.50;34.20
49222;DHT22;35047;37.588;-122.048;2023-02-18T01:28:40;22.50;34.60
49222;DHT22;35047;37.588;-122.048;2023-02-18T01:31:10;22.40;34.60
49222;DHT22;35047;37.588;-122.048;2023-02-18T01:33:37;22.30;34.70
49222;DHT22;35047;37.588;-122.048;2023-02-18T01:36:04;22.30;34.60
49222;DHT22;35047;37.588;-122.048;2023-02-18T01:38:31;22.20;35.20
49222;DHT22;35047;37.588;-122.048;2023-02-18T01:40:58;22.10;36.00
49222;DHT22;35047;37.588;-122.048;2023-02-18T01:43:25;22.10;36.90
49222;DHT22;35047;37.588;-122.048;2023-02-18T01:45:59;22.00;36.80
49222;DHT22;35047;37.588;-122.048;2023-02-18T01:48:55;21.90;37.20
49222;DHT22;35047;37.588;-122.048;2023-02-18T01:51:30;21.70;37.40
49222;DHT22;35047;37.588;-122.048;2023-02-18T01:54:08;21.60;37.80
49222;DHT22;35047;37.588;-122.048;2023-02-18T01:59:23;21.30;37.90
49222;DHT22;35047;37.588;-122.048;2023-02-18T02:01:52;21.20;38.30
49222;DHT22;35047;37.588;-122.048;2023-02-18T02:04:19;21.00;38.40
49222;DHT22;35047;37.588;-122.048;2023-02-18T02:06:47;20.90;39.30
49222;DHT22;35047;37.588;-122.048;2023-02-18T02:09:16;20.80;40.00
49222;DHT22;35047;37.588;-122.048;2023-02-18T02:11:55;20.70;39.10
49222;DHT22;35047;37.588;-122.048;2023-02-18T02:42:44;19.00;41.80
49222;DHT22;35047;37.588;-122.048;2023-02-18T02:53:39;18.60;42.50
49222;DHT22;35047;37.588;-122.048;2023-02-18T02:56:13;18.50;42.80
49222;DHT22;35047;37.588;-122.048;2023-02-18T02:58:40;18.40;43.00
49222;DHT22;35047;37.588;-122.048;2023-02-18T03:01:23;18.40;43.70
49222;DHT22;35047;37.588;-122.048;2023-02-18T03:06:51;18.30;43.90
49222;DHT22;35047;37.588;-122.048;2023-02-18T03:12:24;18.10;43.70
49222;DHT22;35047;37.588;-122.048;2023-02-18T03:15:19;18.00;43.30
49222;DHT22;35047;37.588;-122.048;2023-02-18T03:17:59;17.90;43.30
49222;DHT22;35047;37.588;-122.048;2023-02-18T03:20:27;17.80;43.70
49222;DHT22;35047;37.588;-122.048;2023-02-18T03:23:00;17.80;44.30
49222;DHT22;35047;37.588;-122.048;2023-02-18T03:25:30;17.70;44.30
49222;DHT22;35047;37.588;-122.048;2023-02-18T03:28:06;17.60;43.60
49222;DHT22;35047;37.588;-122.048;2023-02-18T03:30:50;17.60;43.60
49222;DHT22;35047;37.588;-122.048;2023-02-18T03:33:24;17.50;43.50
49222;DHT22;35047;37.588;-122.048;2023-02-18T03:35:54;17.40;44.50
49222;DHT22;35047;37.588;-122.048;2023-02-18T03:38:43;17.30;44.20
49222;DHT22;35047;37.588;-122.048;2023-02-18T03:41:11;17.20;44.40
49222;DHT22;35047;37.588;-122.048;2023-02-18T03:43:40;17.10;44.30
49222;DHT22;35047;37.588;-122.048;2023-02-18T03:46:07;17.00;45.00
49222;DHT22;35047;37.588;-122.048;2023-02-18T03:48:33;16.90;45.20
49222;DHT22;35047;37.588;-122.048;2023-02-18T03:51:00;16.90;45.10
49222;DHT22;35047;37.588;-122.048;2023-02-18T03:53:27;16.80;45.50
49222;DHT22;35047;37.588;-122.048;2023-02-18T03:55:53;16.80;45.90
49222;DHT22;35047;37.588;-122.048;2023-02-18T03:58:21;16.70;46.50
49222;DHT22;35047;37.588;-122.048;2023-02-18T04:00:48;16.60;45.80
49222;DHT22;35047;37.588;-122.048;2023-02-18T04:03:14;16.50;45.80
49222;DHT22;35047;37.588;-122.048;2023-02-18T04:05:41;16.50;46.90
49222;DHT22;35047;37.588;-122.048;2023-02-18T04:08:08;16.40;46.70
49222;DHT22;35047;37.588;-122.048;2023-02-18T04:10:35;16.30;46.00
49222;DHT22;35047;37.588;-122.048;2023-02-18T04:13:01;16.20;46.40
49222;DHT22;35047;37.588;-122.048;2023-02-18T04:15:30;16.20;46.80
49222;DHT22;35047;37.588;-122.048;2023-02-18T04:17:56;16.10;47.00
49222;DHT22;35047;37.588;-122.048;2023-02-18T04:20:25;16.10;47.00
49222;DHT22;35047;37.588;-122.048;2023-02-18T04:22:51;15.90;47.60
49222;DHT22;35047;37.588;-122.048;2023-02-18T04:25:18;15.90;47.40
49222;DHT22;35047;37.588;-122.048;2023-02-18T04:27:45;15.90;46.90
49222;DHT22;35047;37.588;-122.048;2023-02-18T04:30:12;15.90;47.10
49222;DHT22;35047;37.588;-122.048;2023-02-18T04:32:39;15.80;47.30
49222;DHT22;35047;37.588;-122.048;2023-02-18T04:35:06;15.80;46.80
49222;DHT22;35047;37.588;-122.048;2023-02-18T04:37:33;15.70;47.50
49222;DHT22;35047;37.588;-122.048;2023-02-18T04:40:00;15.70;48.20
49222;DHT22;35047;37.588;-122.048;2023-02-18T04:42:27;15.60;48.10
49222;DHT22;35047;37.588;-122.048;2023-02-18T04:44:54;15.50;48.10
49222;DHT22;35047;37.588;-122.048;2023-02-18T04:47:21;15.40;47.90
49222;DHT22;35047;37.588;-122.048;2023-02-18T04:49:48;15.30;48.60
49222;DHT22;35047;37.588;-122.048;2023-02-18T04:52:15;15.30;49.10
49222;DHT22;35047;37.588;-122.048;2023-02-18T04:54:42;15.20;49.10
49222;DHT22;35047;37.588;-122.048;2023-02-18T04:57:10;15.20;49.50
49222;DHT22;35047;37.588;-122.048;2023-02-18T04:59:36;15.10;49.70
49222;DHT22;35047;37.588;-122.048;2023-02-18T05:02:04;15.10;49.50
49222;DHT22;35047;37.588;-122.048;2023-02-18T05:04:31;15.00;49.10
49222;DHT22;35047;37.588;-122.048;2023-02-18T05:06:57;15.00;48.60
49222;DHT22;35047;37.588;-122.048;2023-02-18T05:09:25;14.90;49.10
49222;DHT22;35047;37.588;-122.048;2023-02-18T05:11:53;14.80;49.90
49222;DHT22;35047;37.588;-122.048;2023-02-18T05:14:20;14.70;50.40
49222;DHT22;35047;37.588;-122.048;2023-02-18T05:16:46;14.70;50.50
49222;DHT22;35047;37.588;-122.048;2023-02-18T05:19:15;14.60;50.40
49222;DHT22;35047;37.588;-122.048;2023-02-18T05:21:41;14.60;50.50
49222;DHT22;35047;37.588;-122.048;2023-02-18T05:24:09;14.50;50.90
49222;DHT22;35047;37.588;-122.048;2023-02-18T05:26:36;14.50;51.60
49222;DHT22;35047;37.588;-122.048;2023-02-18T05:29:03;14.40;51.50
49222;DHT22;35047;37.588;-122.048;2023-02-18T05:31:30;14.30;51.80
49222;DHT22;35047;37.588;-122.048;2023-02-18T05:33:58;14.30;51.80
49222;DHT22;35047;37.588;-122.048;2023-02-18T05:36:24;14.30;52.00
49222;DHT22;35047;37.588;-122.048;2023-02-18T05:38:52;14.20;51.80
49222;DHT22;35047;37.588;-122.048;2023-02-18T05:41:19;14.20;52.00
49222;DHT22;35047;37.588;-122.048;2023-02-18T05:43:45;14.10;52.00
49222;DHT22;35047;37.588;-122.048;2023-02-18T05:46:31;14.00;52.50
49222;DHT22;35047;37.588;-122.048;2023-02-18T05:48:58;13.90;52.90
49222;DHT22;35047;37.588;-122.048;2023-02-18T05:51:25;13.90;52.50
49222;DHT22;35047;37.588;-122.048;2023-02-18T05:53:52;13.90;52.70
49222;DHT22;35047;37.588;-122.048;2023-02-18T05:56:20;13.90;52.80
49222;DHT22;35047;37.588;-122.048;2023-02-18T05:58:47;13.80;53.00
49222;DHT22;35047;37.588;-122.048;2023-02-18T06:01:14;13.70;53.00
49222;DHT22;35047;37.588;-122.048;2023-02-18T06:03:42;13.70;53.00
49222;DHT22;35047;37.588;-122.048;2023-02-18T06:06:09;13.60;53.20
49222;DHT22;35047;37.588;-122.048;2023-02-18T06:08:36;13.60;53.20
49222;DHT22;35047;37.588;-122.048;2023-02-18T06:11:03;13.50;53.70
49222;DHT22;35047;37.588;-122.048;2023-02-18T06:13:30;13.50;53.90
49222;DHT22;35047;37.588;-122.048;2023-02-18T06:15:57;13.50;54.20
49222;DHT22;35047;37.588;-122.048;2023-02-18T06:18:23;13.50;54.20
49222;DHT22;35047;37.588;-122.048;2023-02-18T06:20:51;13.40;53.80
49222;DHT22;35047;37.588;-122.048;2023-02-18T06:23:18;13.40;54.00
49222;DHT22;35047;37.588;-122.048;2023-02-18T06:25:48;13.30;54.20
49222;DHT22;35047;37.588;-122.048;2023-02-18T06:28:16;13.30;54.10
49222;DHT22;35047;37.588;-122.048;2023-02-18T06:30:44;13.30;54.40
49222;DHT22;35047;37.588;-122.048;2023-02-18T06:33:11;13.20;54.40
49222;DHT22;35047;37.588;-122.048;2023-02-18T06:35:38;13.10;54.70
49222;DHT22;35047;37.588;-122.048;2023-02-18T06:38:05;13.10;54.90
49222;DHT22;35047;37.588;-122.048;2023-02-18T06:40:32;13.10;55.20
49222;DHT22;35047;37.588;-122.048;2023-02-18T06:42:59;13.10;55.30
49222;DHT22;35047;37.588;-122.048;2023-02-18T06:45:26;13.00;55.10
49222;DHT22;35047;37.588;-122.048;2023-02-18T06:47:53;13.00;55.30
49222;DHT22;35047;37.588;-122.048;2023-02-18T06:50:20;13.00;55.20
49222;DHT22;35047;37.588;-122.048;2023-02-18T06:52:47;13.00;55.50
49222;DHT22;35047;37.588;-122.048;2023-02-18T06:55:15;12.90;55.50
49222;DHT22;35047;37.588;-122.048;2023-02-18T06:57:42;12.90;55.00
49222;DHT22;35047;37.588;-122.048;2023-02-18T07:00:09;12.90;55.10
49222;DHT22;35047;37.588;-122.048;2023-02-18T07:02:36;12.80;55.30
49222;DHT22;35047;37.588;-122.048;2023-02-18T07:05:02;12.80;55.30
49222;DHT22;35047;37.588;-122.048;2023-02-18T07:07:30;12.70;55.40
49222;DHT22;35047;37.588;-122.048;2023-02-18T07:09:56;12.70;55.80
49222;DHT22;35047;37.588;-122.048;2023-02-18T07:12:23;12.70;55.60
49222;DHT22;35047;37.588;-122.048;2023-02-18T07:14:49;12.60;58.20
49222;DHT22;35047;37.588;-122.048;2023-02-18T07:17:16;12.60;60.70
49222;DHT22;35047;37.588;-122.048;2023-02-18T07:19:43;12.60;59.90
49222;DHT22;35047;37.588;-122.048;2023-02-18T07:22:09;12.60;60.50
49222;DHT22;35047;37.588;-122.048;2023-02-18T07:24:37;12.50;59.40
49222;DHT22;35047;37.588;-122.048;2023-02-18T07:27:03;12.50;61.70
49222;DHT22;35047;37.588;-122.048;2023-02-18T07:29:32;12.50;64.30
49222;DHT22;35047;37.588;-122.048;2023-02-18T07:31:58;12.40;57.50
49222;DHT22;35047;37.588;-122.048;2023-02-18T07:34:25;12.40;58.20
49222;DHT22;35047;37.588;-122.048;2023-02-18T07:36:51;12.30;59.10
49222;DHT22;35047;37.588;-122.048;2023-02-18T07:39:18;12.30;66.30
49222;DHT22;35047;37.588;-122.048;2023-02-18T07:41:48;12.30;66.80
49222;DHT22;35047;37.588;-122.048;2023-02-18T07:44:16;12.30;69.10
49222;DHT22;35047;37.588;-122.048;2023-02-18T07:46:42;12.30;69.30
49222;DHT22;35047;37.588;-122.048;2023-02-18T07:49:10;12.30;69.30
49222;DHT22;35047;37.588;-122.048;2023-02-18T07:51:37;12.20;69.50
49222;DHT22;35047;37.588;-122.048;2023-02-18T07:54:05;12.20;69.60
49222;DHT22;35047;37.588;-122.048;2023-02-18T07:56:32;12.10;69.50
49222;DHT22;35047;37.588;-122.048;2023-02-18T07:58:58;12.10;69.50
49222;DHT22;35047;37.588;-122.048;2023-02-18T08:01:25;12.20;69.40
49222;DHT22;35047;37.588;-122.048;2023-02-18T08:03:52;12.00;68.70
49222;DHT22;35047;37.588;-122.048;2023-02-18T08:06:27;12.00;67.30
49222;DHT22;35047;37.588;-122.048;2023-02-18T08:08:56;11.90;57.70
49222;DHT22;35047;37.588;-122.048;2023-02-18T08:11:22;11.80;57.30
49222;DHT22;35047;37.588;-122.048;2023-02-18T08:13:50;11.80;57.60
49222;DHT22;35047;37.588;-122.048;2023-02-18T08:16:18;11.80;57.60
49222;DHT22;35047;37.588;-122.048;2023-02-18T08:18:47;11.80;57.40
49222;DHT22;35047;37.588;-122.048;2023-02-18T08:21:16;11.80;57.70
49222;DHT22;35047;37.588;-122.048;2023-02-18T08:23:43;11.70;57.90
49222;DHT22;35047;37.588;-122.048;2023-02-18T08:26:11;11.70;57.60
49222;DHT22;35047;37.588;-122.048;2023-02-18T08:28:39;11.70;58.00
49222;DHT22;35047;37.588;-122.048;2023-02-18T08:31:06;11.70;57.90
49222;DHT22;35047;37.588;-122.048;2023-02-18T08:33:34;11.70;57.80
49222;DHT22;35047;37.588;-122.048;2023-02-18T08:36:06;11.60;58.10
49222;DHT22;35047;37.588;-122.048;2023-02-18T08:38:35;11.60;58.30
49222;DHT22;35047;37.588;-122.048;2023-02-18T08:41:03;11.60;57.90
49222;DHT22;35047;37.588;-122.048;2023-02-18T08:43:31;11.60;58.20
49222;DHT22;35047;37.588;-122.048;2023-02-18T08:45:58;11.60;58.30
49222;DHT22;35047;37.588;-122.048;2023-02-18T08:48:26;11.50;58.30
49222;DHT22;35047;37.588;-122.048;2023-02-18T08:50:54;11.60;58.50
49222;DHT22;35047;37.588;-122.048;2023-02-18T08:53:20;11.50;58.70
49222;DHT22;35047;37.588;-122.048;2023-02-18T08:55:48;11.50;58.90
49222;DHT22;35047;37.588;-122.048;2023-02-18T08:58:14;11.50;59.00
49222;DHT22;35047;37.588;-122.048;2023-02-18T09:00:43;11.50;58.70
49222;DHT22;35047;37.588;-122.048;2023-02-18T09:03:13;11.50;58.70
49222;DHT22;35047;37.588;-122.048;2023-02-18T09:05:40;11.50;58.70
49222;DHT22;35047;37.588;-122.048;2023-02-18T09:08:08;11.50;58.90
49222;DHT22;35047;37.588;-122.048;2023-02-18T09:10:35;11.50;59.20
49222;DHT22;35047;37.588;-122.048;2023-02-18T09:13:01;11.50;59.30
49222;DHT22;35047;37.588;-122.048;2023-02-18T09:15:28;11.40;59.20
49222;DHT22;35047;37.588;-122.048;2023-02-18T09:17:57;11.40;59.00
49222;DHT22;35047;37.588;-122.048;2023-02-18T09:20:24;11.40;59.00
49222;DHT22;35047;37.588;-122.048;2023-02-18T09:22:51;11.40;59.00
49222;DHT22;35047;37.588;-122.048;2023-02-18T09:25:18;11.30;59.20
49222;DHT22;35047;37.588;-122.048;2023-02-18T09:27:45;11.30;58.90
49222;DHT22;35047;37.588;-122.048;2023-02-18T09:30:13;11.20;59.10
49222;DHT22;35047;37.588;-122.048;2023-02-18T09:32:39;11.20;59.30
49222;DHT22;35047;37.588;-122.048;2023-02-18T09:35:06;11.20;59.90
49222;DHT22;35047;37.588;-122.048;2023-02-18T09:37:33;11.20;59.50
49222;DHT22;35047;37.588;-122.048;2023-02-18T09:40:00;11.10;60.00
49222;DHT22;35047;37.588;-122.048;2023-02-18T09:42:31;11.10;59.50
49222;DHT22;35047;37.588;-122.048;2023-02-18T09:45:03;11.10;59.70
49222;DHT22;35047;37.588;-122.048;2023-02-18T09:47:32;11.10;59.60
49222;DHT22;35047;37.588;-122.048;2023-02-18T09:50:11;11.10;59.70
49222;DHT22;35047;37.588;-122.048;2023-02-18T09:52:40;11.10;59.50
49222;DHT22;35047;37.588;-122.048;2023-02-18T09:55:33;11.10;59.70
49222;DHT22;35047;37.588;-122.048;2023-02-18T09:58:06;11.00;60.10
49222;DHT22;35047;37.588;-122.048;2023-02-18T10:00:45;11.00;60.30
49222;DHT22;35047;37.588;-122.048;2023-02-18T10:03:24;11.00;60.50
49222;DHT22;35047;37.588;-122.048;2023-02-18T10:06:11;11.00;60.30
49222;DHT22;35047;37.588;-122.048;2023-02-18T10:08:46;11.00;60.40
49222;DHT22;35047;37.588;-122.048;2023-02-18T10:11:17;10.90;60.80
49222;DHT22;35047;37.588;-122.048;2023-02-18T10:13:47;10.90;60.90
49222;DHT22;35047;37.588;-122.048;2023-02-18T10:16:18;10.80;60.90
49222;DHT22;35047;37.588;-122.048;2023-02-18T10:21:40;10.80;61.30
49222;DHT22;35047;37.588;-122.048;2023-02-18T10:24:21;10.80;61.50
49222;DHT22;35047;37.588;-122.048;2023-02-18T10:26:51;10.80;61.30
49222;DHT22;35047;37.588;-122.048;2023-02-18T10:29:19;10.80;61.00
49222;DHT22;35047;37.588;-122.048;2023-02-18T10:41:18;10.70;61.20
49222;DHT22;35047;37.588;-122.048;2023-02-18T10:51:31;10.60;61.80
49222;DHT22;35047;37.588;-122.048;2023-02-18T10:53:59;10.60;61.40
49222;DHT22;35047;37.588;-122.048;2023-02-18T10:56:39;10.50;61.10
49222;DHT22;35047;37.588;-122.048;2023-02-18T11:01:55;10.50;61.40
49222;DHT22;35047;37.588;-122.048;2023-02-18T11:04:27;10.40;61.70
49222;DHT22;35047;37.588;-122.048;2023-02-18T11:07:04;10.50;61.70
49222;DHT22;35047;37.588;-122.048;2023-02-18T11:09:42;10.40;61.10
49222;DHT22;35047;37.588;-122.048;2023-02-18T11:15:15;10.30;61.70
49222;DHT22;35047;37.588;-122.048;2023-02-18T11:17:45;10.30;62.20
49222;DHT22;35047;37.588;-122.048;2023-02-18T11:23:15;10.30;61.70
49222;DHT22;35047;37.588;-122.048;2023-02-18T11:26:02;10.30;61.60
49222;DHT22;35047;37.588;-122.048;2023-02-18T11:28:47;10.30;62.10
49222;DHT22;35047;37.588;-122.048;2023-02-18T11:31:23;10.30;62.30
49222;DHT22;35047;37.588;-122.048;2023-02-18T11:33:56;10.30;62.50
49222;DHT22;35047;37.588;-122.048;2023-02-18T11:36:31;10.30;62.40
49222;DHT22;35047;37.588;-122.048;2023-02-18T11:39:01;10.30;62.60
49222;DHT22;35047;37.588;-122.048;2023-02-18T11:41:41;10.30;62.40
49222;DHT22;35047;37.588;-122.048;2023-02-18T11:47:16;10.30;62.10
49222;DHT22;35047;37.588;-122.048;2023-02-18T11:50:05;10.30;62.00
49222;DHT22;35047;37.588;-122.048;2023-02-18T11:52:46;10.20;61.80
49222;DHT22;35047;37.588;-122.048;2023-02-18T11:55:27;10.20;61.90
49222;DHT22;35047;37.588;-122.048;2023-02-18T11:58:01;10.20;61.80
49222;DHT22;35047;37.588;-122.048;2023-02-18T12:00:45;10.10;61.90
49222;DHT22;35047;37.588;-122.048;2023-02-18T12:03:45;10.10;62.30
49222;DHT22;35047;37.588;-122.048;2023-02-18T12:06:42;10.10;62.70
49222;DHT22;35047;37.588;-122.048;2023-02-18T12:11:59;10.00;62.60
49222;DHT22;35047;37.588;-122.048;2023-02-18T12:14:26;9.90;62.90
49222;DHT22;35047;37.588;-122.048;2023-02-18T12:22:42;9.90;62.80
49222;DHT22;35047;37.588;-122.048;2023-02-18T12:34:21;9.80;62.50
49222;DHT22;35047;37.588;-122.048;2023-02-18T12:37:03;9.70;62.50
49222;DHT22;35047;37.588;-122.048;2023-02-18T12:54:13;9.60;62.80
49222;DHT22;35047;37.588;-122.048;2023-02-18T12:56:58;9.50;62.90
49222;DHT22;35047;37.588;-122.048;2023-02-18T12:59:51;9.50;63.30
49222;DHT22;35047;37.588;-122.048;2023-02-18T13:11:15;9.30;63.80
49222;DHT22;35047;37.588;-122.048;2023-02-18T13:14:15;9.30;63.90
49222;DHT22;35047;37.588;-122.048;2023-02-18T13:16:47;9.30;64.00
49222;DHT22;35047;37.588;-122.048;2023-02-18T13:19:28;9.30;64.10
49222;DHT22;35047;37.588;-122.048;2023-02-18T13:22:03;9.20;64.00
49222;DHT22;35047;37.588;-122.048;2023-02-18T13:24:32;9.20;63.90
49222;DHT22;35047;37.588;-122.048;2023-02-18T13:32:39;9.30;63.70
49222;DHT22;35047;37.588;-122.048;2023-02-18T13:40:39;9.20;64.20
49222;DHT22;35047;37.588;-122.048;2023-02-18T13:43:29;9.20;64.70
49222;DHT22;35047;37.588;-122.048;2023-02-18T13:46:22;9.10;64.40
49222;DHT22;35047;37.588;-122.048;2023-02-18T13:49:02;9.10;64.60
49222;DHT22;35047;37.588;-122.048;2023-02-18T13:51:33;9.10;64.70
49222;DHT22;35047;37.588;-122.048;2023-02-18T13:56:57;9.10;65.10
49222;DHT22;35047;37.588;-122.048;2023-02-18T13:59:39;9.00;65.70
49222;DHT22;35047;37.588;-122.048;2023-02-18T14:09:49;9.00;64.70
49222;DHT22;35047;37.588;-122.048;2023-02-18T14:23:41;9.00;65.10
49222;DHT22;35047;37.588;-122.048;2023-02-18T14:26:09;8.90;65.60
49222;DHT22;35047;37.588;-122.048;2023-02-18T14:29:14;9.00;65.90
49222;DHT22;35047;37.588;-122.048;2023-02-18T14:32:00;9.00;65.40
49222;DHT22;35047;37.588;-122.048;2023-02-18T14:40:52;8.90;65.90
49222;DHT22;35047;37.588;-122.048;2023-02-18T14:48:51;8.80;65.80
49222;DHT22;35047;37.588;-122.048;2023-02-18T14:51:21;8.80;65.90
49222;DHT22;35047;37.588;-122.048;2023-02-18T14:53:48;8.70;66.50
49222;DHT22;35047;37.588;-122.048;2023-02-18T14:56:18;8.80;65.80
49222;DHT22;35047;37.588;-122.048;2023-02-18T14:58:56;8.70;65.80
49222;DHT22;35047;37.588;-122.048;2023-02-18T15:01:33;8.70;65.90
49222;DHT22;35047;37.588;-122.048;2023-02-18T15:04:01;8.70;66.10
49222;DHT22;35047;37.588;-122.048;2023-02-18T15:06:34;8.70;66.10
49222;DHT22;35047;37.588;-122.048;2023-02-18T15:09:13;8.70;65.70
49222;DHT22;35047;37.588;-122.048;2023-02-18T15:11:46;8.70;66.20
49222;DHT22;35047;37.588;-122.048;2023-02-18T15:14:20;8.70;66.20
49222;DHT22;35047;37.588;-122.048;2023-02-18T15:16:49;8.60;66.30
49222;DHT22;35047;37.588;-122.048;2023-02-18T15:19:18;8.60;66.60
49222;DHT22;35047;37.588;-122.048;2023-02-18T15:21:49;8.70;66.70
49222;DHT22;35047;37.588;-122.048;2023-02-18T15:26:56;8.70;66.30
49222;DHT22;35047;37.588;-122.048;2023-02-18T15:29:31;8.60;66.50
49222;DHT22;35047;37.588;-122.048;2023-02-18T15:32:00;8.70;66.80
49222;DHT22;35047;37.588;-122.048;2023-02-18T15:34:38;8.70;67.10
49222;DHT22;35047;37.588;-122.048;2023-02-18T15:37:09;8.70;66.90
49222;DHT22;35047;37.588;-122.048;2023-02-18T15:39:37;8.70;67.10
49222;DHT22;35047;37.588;-122.048;2023-02-18T15:44:37;8.70;67.80
49222;DHT22;35047;37.588;-122.048;2023-02-18T15:47:07;8.80;67.70
49222;DHT22;35047;37.588;-122.048;2023-02-18T15:49:36;8.90;68.00
49222;DHT22;35047;37.588;-122.048;2023-02-18T15:52:05;8.90;67.60
49222;DHT22;35047;37.588;-122.048;2023-02-18T15:54:33;9.00;67.00
49222;DHT22;35047;37.588;-122.048;2023-02-18T15:57:02;9.00;67.30
49222;DHT22;35047;37.588;-122.048;2023-02-18T15:59:34;9.10;67.40
49222;DHT22;35047;37.588;-122.048;2023-02-18T16:04:40;9.20;67.40
49222;DHT22;35047;37.588;-122.048;2023-02-18T16:07:24;9.20;66.80
49222;DHT22;35047;37.588;-122.048;2023-02-18T16:10:21;9.30;67.10
49222;DHT22;35047;37.588;-122.048;2023-02-18T16:12:53;9.40;67.00
49222;DHT22;35047;37.588;-122.048;2023-02-18T16:15:27;9.50;67.10
49222;DHT22;35047;37.588;-122.048;2023-02-18T16:17:55;9.60;67.00
49222;DHT22;35047;37.588;-122.048;2023-02-18T16:22:54;9.80;65.90
49222;DHT22;35047;37.588;-122.048;2023-02-18T16:25:25;9.80;65.40
49222;DHT22;35047;37.588;-122.048;2023-02-18T16:30:28;10.00;65.20
49222;DHT22;35047;37.588;-122.048;2023-02-18T16:32:55;10.20;65.10
49222;DHT22;35047;37.588;-122.048;2023-02-18T16:35:25;10.40;64.40
49222;DHT22;35047;37.588;-122.048;2023-02-18T16:37:53;10.50;63.70
49222;DHT22;35047;37.588;-122.048;2023-02-18T16:40:31;10.60;63.20
49222;DHT22;35047;37.588;-122.048;2023-02-18T16:43:01;10.70;63.80
49222;DHT22;35047;37.588;-122.048;2023-02-18T16:45:35;10.80;63.90
49222;DHT22;35047;37.588;-122.048;2023-02-18T16:48:03;10.90;63.70
49222;DHT22;35047;37.588;-122.048;2023-02-18T16:50:30;11.00;63.10
49222;DHT22;35047;37.588;-122.048;2023-02-18T16:52:58;11.10;62.70
49222;DHT22;35047;37.588;-122.048;2023-02-18T16:55:28;11.20;63.20
49222;DHT22;35047;37.588;-122.048;2023-02-18T16:57:55;11.50;63.60
49222;DHT22;35047;37.588;-122.048;2023-02-18T17:00:23;11.60;62.60
49222;DHT22;35047;37.588;-122.048;2023-02-18T17:02:52;11.90;61.40
49222;DHT22;35047;37.588;-122.048;2023-02-18T17:05:24;12.10;62.10
49222;DHT22;35047;37.588;-122.048;2023-02-18T17:07:51;12.50;60.90
49222;DHT22;35047;37.588;-122.048;2023-02-18T17:10:18;12.80;58.40
49222;DHT22;35047;37.588;-122.048;2023-02-18T17:12:45;13.20;58.10
49222;DHT22;35047;37.588;-122.048;2023-02-18T17:15:34;13.70;57.20
49222;DHT22;35047;37.588;-122.048;2023-02-18T17:18:01;14.10;57.10
49222;DHT22;35047;37.588;-122.048;2023-02-18T17:20:31;14.20;54.20
49222;DHT22;35047;37.588;-122.048;2023-02-18T17:22:59;14.50;55.20
49222;DHT22;35047;37.588;-122.048;2023-02-18T17:25:37;14.90;55.60
49222;DHT22;35047;37.588;-122.048;2023-02-18T17:28:05;15.30;55.10
49222;DHT22;35047;37.588;-122.048;2023-02-18T17:30:36;15.50;52.60
49222;DHT22;35047;37.588;-122.048;2023-02-18T17:33:05;15.90;51.10
49222;DHT22;35047;37.588;-122.048;2023-02-18T17:35:32;16.10;52.10
49222;DHT22;35047;37.588;-122.048;2023-02-18T17:38:00;16.40;50.20
49222;DHT22;35047;37.588;-122.048;2023-02-18T17:40:27;16.80;49.10
49222;DHT22;35047;37.588;-122.048;2023-02-18T17:42:55;17.10;48.40
49222;DHT22;35047;37.588;-122.048;2023-02-18T17:45:27;17.40;48.90
49222;DHT22;35047;37.588;-122.048;2023-02-18T17:47:55;17.80;49.90
49222;DHT22;35047;37.588;-122.048;2023-02-18T17:50:23;18.00;47.20
49222;DHT22;35047;37.588;-122.048;2023-02-18T17:52:50;18.20;45.90
49222;DHT22;35047;37.588;-122.048;2023-02-18T17:57:51;18.60;45.80
49222;DHT22;35047;37.588;-122.048;2023-02-18T18:00:25;18.70;46.40
49222;DHT22;35047;37.588;-122.048;2023-02-18T18:02:52;18.90;47.80
49222;DHT22;35047;37.588;-122.048;2023-02-18T18:05:25;19.20;45.80
49222;DHT22;35047;37.588;-122.048;2023-02-18T18:07:52;19.50;47.10